13°C
Woerden, The Nederlands
Taal:  Nederlands
Updated02/07/2022 06:20 
 

Nearby METAR Reports

EHAM - Amsterdam/Schiph, Netherlands
Distance from station: N 27km
Updated: 02/07/2022 05:55
Helder
Helder
 Wind van ZZW
Wind: ZZW 15 km/h
Temperatuur: 13°C
Dauwpunt: 10°C
Vochtigheid: 82%
Barometer: 1020 hPa
Overzicht: Helder
Visibility: greater than 10 km
2022/07/02 03:55 EHAM 020355Z 20008KT CAVOK 13/10 Q1020 NOSIG
EHRD - Rotterdam Airpor, Netherlands
Distance from station: WZW 30km
Updated: 02/07/2022 05:55
Helder
Helder
 Wind van ZZW
Wind: ZZW 13 km/h
Temperatuur: 13°C
Dauwpunt: 10°C
Vochtigheid: 82%
Barometer: 1021 hPa
Clouds: Helder
Visibility: 10 km
2022/07/02 03:55 EHRD 020355Z AUTO 21007KT 9999 NCD 13/10 Q1021 NOSIG
 
EHGR - Gilze-Rijen Rnla, Netherlands
Distance from station: Z 57km
Updated: 02/07/2022 05:55
Zwaar bewolkt
Zwaar bewolkt
 Wind van Z
Wind: Z 6 km/h
Temperatuur: 13°C
Dauwpunt: 11°C
Vochtigheid: 88%
Barometer: 1021 hPa
Clouds: Zwaar bewolkt
Visibility: 10 km
Cloud details: Meestal bewolkt 1707 m
Zwaar bewolkt 2042 m
2022/07/02 03:55 EHGR 020355Z AUTO 19003KT 130V190 9999 BKN056 OVC067 13/11 Q1021 BLU NOSIG
EHDL - Deelen Rnlafb, Netherlands
Distance from station: O 71km
Updated: 02/07/2022 05:55
Gedeeltelijk bewolkt
Gedeeltelijk bewolkt
 Wind van ZO
Wind: ZO 6 km/h
Temperatuur: 12°C
Dauwpunt: 10°C
Vochtigheid: 88%
Barometer: 1021 hPa
Clouds: Gedeeltelijk bewolkt
Visibility: 10 km
Cloud details: Few Clouds 1494 m
Gedeeltelijk bewolkt 1615 m
2022/07/02 03:55 EHDL 020355Z AUTO 14003KT 100V180 9999 FEW049 SCT053 12/10 Q1021 BLU
 
EHVK - Volkel Rnlafb, Netherlands
Distance from station: ZO 77km
Updated: 02/07/2022 05:55
Meestal bewolkt
Meestal bewolkt
 Wind van varies
Wind: varies 4 km/h
Temperatuur: 12°C
Dauwpunt: 10°C
Vochtigheid: 88%
Barometer: 1022 hPa
Clouds: Meestal bewolkt
Visibility: 10 km
Cloud details: Meestal bewolkt 1585 m
2022/07/02 03:55 EHVK 020355Z AUTO VRB02KT 9999 BKN052 12/10 Q1022 BLU
EHWO - Woensdrecht Rnla, Netherlands
Distance from station: ZZW 78km
Updated: 02/07/2022 05:55
Meestal bewolkt
Meestal bewolkt
 Wind van ZZW
Wind: ZZW 6 km/h
Temperatuur: 9°C
Dauwpunt: 9°C
Vochtigheid: 100%
Barometer: 1021 hPa
Clouds: Meestal bewolkt
Visibility: 10 km
Cloud details: Meestal bewolkt 2012 m
2022/07/02 03:55 EHWO 020355Z AUTO 20003KT 9999 BKN066 09/09 Q1021 BLU
 
EHEH - Eindhoven Rnlafb, Netherlands
Distance from station: ZZO 81km
Updated: 02/07/2022 05:55
Meestal bewolkt
Meestal bewolkt
 Wind van varies
Wind: varies 4 km/h
Temperatuur: 11°C
Dauwpunt: 10°C
Vochtigheid: 94%
Barometer: 1022 hPa
Clouds: Meestal bewolkt
Visibility: 10 km
Cloud details: Meestal bewolkt 1676 m
2022/07/02 03:55 EHEH 020355Z AUTO VRB02KT 9999 BKN055 11/10 Q1022 BLU
EHSC - Goeree Le Sea, Netherlands
Distance from station: W 81km
Updated: 02/07/2022 05:55

 Wind van ZW
Wind: ZW 35 km/h
Temperatuur: 16°C
Dauwpunt: 12°C
Vochtigheid: 77%
Barometer: 1020 hPa
Visibility: 10 km
2022/07/02 03:55 EHSC 020355Z AUTO 23019KT 9999 ///////// 16/12 Q1020 W18/H12